WetterOnline ( https://www.wetteronline.at )

Wetter aktuell Rostock

Aktuelles Wetter: Rostock-Warnemünde (10m)

6-stündlich | Neueste Meldungen
Ortszeit Temperatur Wetter
Do, 18.07. 14:00 20.8° C leicht bewölkt
Do, 18.07. 8:00 17.0° C wolkenlos
Do, 18.07. 2:00 14.3° C leicht bewölkt
Mi, 17.07. 20:00 18.2° C wolkig
Mi, 17.07. 14:00 19.3° C leicht bewölkt
Mi, 17.07. 8:00 16.3° C bewölkt
Mi, 17.07. 2:00 15.7° C bewölkt
Di, 16.07. 20:00 18.1° C fast wolkenlos
Ortszeit Temperatur Wetter
Do, 18.07. 14:30 20.3° C wolkig
Do, 18.07. 14:20 20.3° C wolkig
Do, 18.07. 14:10 20.8° C leicht bewölkt
Do, 18.07. 14:00 20.8° C leicht bewölkt
Do, 18.07. 13:50 20.8° C leicht bewölkt
Do, 18.07. 13:40 20.8° C fast wolkenlos
Do, 18.07. 13:30 21.3° C fast wolkenlos
Do, 18.07. 13:00 20.3° C fast wolkenlos
Do, 18.07. 12:30 21.0° C wolkenlos
Do, 18.07. 12:00 19.9° C wolkig
Do, 18.07. 11:30 22.1° C leicht bewölkt
Ortszeit Relative Feuchte Sichtweite
Do, 18.07. 14:00 68% 21 km
Do, 18.07. 8:00 74% 28 km
Do, 18.07. 2:00 92% 11 km
Mi, 17.07. 20:00 79% 28 km
Mi, 17.07. 14:00 73% 14 km
Mi, 17.07. 8:00 87% 19 km
Mi, 17.07. 2:00 88% 16 km
Di, 16.07. 20:00 81% 22 km
Ortszeit Relative Feuchte Sichtweite
Do, 18.07. 14:30 69% 35 km
Do, 18.07. 14:20 69% -
Do, 18.07. 14:10 67% -
Do, 18.07. 14:00 68% 21 km
Do, 18.07. 13:50 68% -
Do, 18.07. 13:40 66% -
Do, 18.07. 13:30 65% 19 km
Do, 18.07. 13:00 66% 23 km
Do, 18.07. 12:30 66% 35 km
Do, 18.07. 12:00 67% 40 km
Do, 18.07. 11:30 46% 19 km
Ortszeit Niederschlagsmenge Niederschlagsart
Do, 18.07. 14:00 0.0 l/m2 in 6 Std. -
Do, 18.07. 8:00 0.0 l/m2 in 12 Std. -
Do, 18.07. 2:00 0.0 l/m2 in 6 Std. -
Mi, 17.07. 20:00 0.0 l/m2 in 12 Std. -
Mi, 17.07. 14:00 0.0 l/m2 in 6 Std. -
Mi, 17.07. 8:00 0.0 l/m2 in 12 Std. -
Mi, 17.07. 2:00 0.0 l/m2 in 6 Std. -
Di, 16.07. 20:00 0.1 l/m2 in 12 Std. -
Ortszeit Niederschlagsmenge Niederschlagsart
Do, 18.07. 14:30 0.0 l/m2 in 1 Std. -
Do, 18.07. 14:20 keine Meldung -
Do, 18.07. 14:10 keine Meldung -
Do, 18.07. 14:00 0.0 l/m2 in 1 Std. -
Do, 18.07. 13:50 keine Meldung -
Do, 18.07. 13:40 keine Meldung -
Do, 18.07. 13:30 0.0 l/m2 in 1 Std. -
Do, 18.07. 13:00 0.0 l/m2 in 1 Std. -
Do, 18.07. 12:30 0.0 l/m2 in 1 Std. -
Do, 18.07. 12:00 0.0 l/m2 in 1 Std. -
Do, 18.07. 11:30 0.0 l/m2 in 1 Std. -
Ortszeit Stärke Spitze Richtung
km/h Bft. km/h Grad Sektor
Do, 18.07. 14:00 18 3 29 40° NO
Do, 18.07. 8:00 4 1 14 180° S
Do, 18.07. 2:00 7 2 14 180° S
Mi, 17.07. 20:00 11 2 22 310° NW
Mi, 17.07. 14:00 17 3 22 300° NW
Mi, 17.07. 8:00 19 3 41 300° NW
Mi, 17.07. 2:00 30 5 43 280° W
Di, 16.07. 20:00 18 3 40 290° W
Ortszeit Stärke Spitze Richtung
km/h Bft. km/h Grad Sektor
Do, 18.07. 14:30 19 3 30 40° NO
Do, 18.07. 14:20 19 3 - 40° NO
Do, 18.07. 14:10 18 3 - 40° NO
Do, 18.07. 14:00 18 3 29 40° NO
Do, 18.07. 13:50 18 3 - 40° NO
Do, 18.07. 13:40 18 3 - 40° NO
Do, 18.07. 13:30 14 3 25 40° NO
Do, 18.07. 13:00 14 3 22 40° NO
Do, 18.07. 12:30 17 3 22 40° NO
Do, 18.07. 12:00 13 3 20 40° NO
Do, 18.07. 11:30 11 2 18 150° SO
Ortszeit Untergrenze Bedeckung Gattung
total tief tief mittel hoch
Do, 18.07. 14:00 1800 m 3/8 3/8 - - -
Do, 18.07. 8:00 - 0/8 0/8 - - -
Do, 18.07. 2:00 9000 m 5/8 0/8 - - -
Mi, 17.07. 20:00 6600 m 7/8 5/8 - - -
Mi, 17.07. 14:00 6900 m 7/8 1/8 - - -
Mi, 17.07. 8:00 300 m 7/8 7/8 - - -
Mi, 17.07. 2:00 300 m 7/8 7/8 - - -
Di, 16.07. 20:00 9000 m 2/8 0/8 - - -
Ortszeit Bedeckungsgrad in Achtel und Wolkenuntergrenze
Do, 18.07. 14:30 4(1800m) 5(9000m)
Do, 18.07. 14:20 4(1800m) 5(9000m)
Do, 18.07. 14:10 4(1800m) 4(9000m)
Do, 18.07. 14:00 3(1800m) 4(9000m)
Do, 18.07. 13:50 3(1800m)
Do, 18.07. 13:40 1(1800m)
Do, 18.07. 13:30 1(1500m)
Do, 18.07. 13:00 1(1500m)
Do, 18.07. 12:30 keine Wolken
Do, 18.07. 12:00 5(1470m) 5(1500m)
Do, 18.07. 11:30 2(1320m)
Ortszeit Luftdruck NN (hPa) Tendenz (hPa in 3 Std.)
Do, 18.07. 14:00 1013 - 0,6
Do, 18.07. 8:00 1014 - 0,1
Do, 18.07. 2:00 1014 - 0,3
Mi, 17.07. 20:00 1014 - 0,8
Mi, 17.07. 14:00 1015 + 0,1
Mi, 17.07. 8:00 1015 + 0,4
Mi, 17.07. 2:00 1014 + 0,3
Di, 16.07. 20:00 1014 0,0
Ortszeit Luftdruck NN (hPa) Tendenz (hPa in 3 Std.)
Do, 18.07. 14:30 1012 - 0,7
Do, 18.07. 14:20 1012 keine Meldung
Do, 18.07. 14:10 1012 keine Meldung
Do, 18.07. 14:00 1013 - 0,6
Do, 18.07. 13:50 1013 keine Meldung
Do, 18.07. 13:40 1013 keine Meldung
Do, 18.07. 13:30 1013 - 0,7
Do, 18.07. 13:00 1013 - 0,6
Do, 18.07. 12:30 1013 - 0,5
Do, 18.07. 12:00 1013 - 0,4
Do, 18.07. 11:30 1013 - 0,5
Ortszeit Schneehöhe (cm)
Do, 18.07. 14:00 -
Do, 18.07. 8:00 -
Do, 18.07. 2:00 -
Mi, 17.07. 20:00 -
Mi, 17.07. 14:00 -
Mi, 17.07. 8:00 -
Mi, 17.07. 2:00 -
Di, 16.07. 20:00 -
Ortszeit Schneehöhe (cm)
Do, 18.07. 14:30 -
Do, 18.07. 14:20 -
Do, 18.07. 14:10 -
Do, 18.07. 14:00 -
Do, 18.07. 13:50 -
Do, 18.07. 13:40 -
Do, 18.07. 13:30 -
Do, 18.07. 13:00 -
Do, 18.07. 12:30 -
Do, 18.07. 12:00 -
Do, 18.07. 11:30 -
Link zu dieser Seite / Seite empfehlen

Das Wetter in ...